.
WxDataArchive / Data Records for 2012-06-05
2012-06-04 June 2012 2012-06-06

Data Records for Tuesday, 05 June 2012

Time	Temp	Chill	HIndex	Humid	Dewpt	 Wind 	HiWind	WindDir	Rain 	Barom 
-----	----	-----	------	-----	-----	------	------	-------	-----	----- 
00:00	61.0	61.0	61.0	61	47.5	0	0	---	0.00	29.869 
00:05	60.7	60.7	60.7	62	47.6	0	0	---	0.00	29.869 
00:10	60.5	60.5	60.5	62	47.4	0	0	---	0.00	29.869 
00:15	60.4	60.4	60.4	62	47.3	0	2	112	0.00	29.871 
00:20	60.1	60.1	60.1	63	47.5	0	0	---	0.00	29.871 
00:25	59.9	59.9	59.9	63	47.3	0	0	---	0.00	29.871 
00:30	59.8	59.8	59.8	64	47.6	0	0	---	0.00	29.873 
00:35	59.5	59.5	59.5	65	47.7	0	0	---	0.00	29.873 
00:40	59.3	59.3	59.3	65	47.5	0	0	---	0.00	29.873 
00:45	59.0	59.0	59.0	66	47.7	0	0	---	0.00	29.871 
00:50	58.7	58.7	58.7	66	47.4	0	0	---	0.00	29.871 
00:55	58.6	58.6	58.6	67	47.7	0	0	---	0.00	29.871 
01:00	58.4	58.4	58.4	68	47.9	0	0	---	0.00	29.879 
01:05	58.3	58.3	58.3	68	47.8	0	0	---	0.00	29.879 
01:10	58.1	58.1	58.1	69	48.0	0	0	---	0.00	29.879 
01:15	58.0	58.0	58.0	69	47.9	0	0	---	0.00	29.878 
01:20	57.8	57.8	57.8	69	47.7	0	0	---	0.00	29.878 
01:25	57.6	57.6	57.6	70	47.9	0	0	---	0.00	29.878 
01:30	57.5	57.5	57.5	70	47.8	0	0	---	0.00	29.877 
01:35	57.3	57.3	57.3	70	47.6	0	0	---	0.00	29.877 
01:40	57.3	57.3	57.3	70	47.6	0	2	112	0.00	29.877 
01:45	57.3	57.3	57.3	70	47.6	0	0	---	0.00	29.880 
01:50	57.3	57.3	57.3	70	47.6	0	1	112	0.00	29.880 
01:55	57.5	57.5	57.5	70	47.8	0	0	---	0.00	29.880 
02:00	57.5	57.5	57.5	70	47.8	0	0	---	0.00	29.880 
02:05	57.5	57.5	57.5	70	47.8	0	0	---	0.00	29.880 
02:10	57.5	57.5	57.5	70	47.8	0	0	---	0.00	29.880 
02:15	57.3	57.3	57.3	71	48.0	0	0	---	0.00	29.883 
02:20	57.3	57.3	57.3	71	48.0	0	1	112	0.00	29.883 
02:25	57.2	57.2	57.2	71	47.9	0	0	---	0.00	29.883 
02:30	57.0	57.0	57.0	72	48.1	0	0	---	0.00	29.884 
02:35	56.7	56.7	56.7	72	47.8	0	0	---	0.00	29.884 
02:40	56.6	56.6	56.6	73	48.0	0	0	---	0.00	29.884 
02:45	56.3	56.3	56.3	73	47.8	0	0	---	0.00	29.884 
02:50	56.2	56.2	56.2	73	47.7	0	0	---	0.00	29.884 
02:55	55.9	55.9	55.9	74	47.7	0	0	---	0.00	29.884 
03:00	55.7	55.7	55.7	75	47.9	0	0	---	0.00	29.885 
03:05	55.4	55.4	55.4	75	47.6	0	0	---	0.00	29.885 
03:10	55.3	55.3	55.3	76	47.9	0	0	---	0.00	29.885 
03:15	55.1	55.1	55.1	77	48.0	0	0	---	0.00	29.885 
03:20	54.8	54.8	54.8	77	47.7	0	0	---	0.00	29.885 
03:25	54.7	54.7	54.7	78	48.0	0	0	---	0.00	29.885 
03:30	54.4	54.4	54.4	78	47.7	0	0	---	0.00	29.881 
03:35	54.2	54.2	54.2	79	47.8	0	0	---	0.00	29.881 
03:40	54.1	54.1	54.1	80	48.1	0	0	---	0.00	29.881 
03:45	53.9	53.9	53.9	81	48.2	0	0	---	0.00	29.882 
03:50	53.8	53.8	53.8	81	48.1	0	0	---	0.00	29.882 
03:55	53.6	53.6	53.6	81	47.9	0	0	---	0.00	29.882 
04:00	53.5	53.5	53.5	82	48.1	0	0	---	0.00	29.884 
04:05	53.3	53.3	53.3	82	47.9	0	0	---	0.00	29.884 
04:10	53.2	53.2	53.2	83	48.2	0	0	---	0.00	29.884 
04:15	53.1	53.1	53.1	83	48.1	0	0	---	0.00	29.885 
04:20	53.1	53.1	53.1	84	48.4	0	0	---	0.00	29.885 
04:25	52.9	52.9	52.9	84	48.2	0	0	---	0.00	29.885 
04:30	52.8	52.8	52.8	84	48.1	0	0	---	0.00	29.892 
04:35	52.6	52.6	52.6	84	47.9	0	0	---	0.00	29.892 
04:40	52.5	52.5	52.5	84	47.8	0	0	---	0.00	29.892 
04:45	52.5	52.5	52.5	85	48.1	0	0	---	0.00	29.895 
04:50	52.3	52.3	52.3	85	47.9	0	0	---	0.00	29.895 
04:55	52.2	52.2	52.2	86	48.1	0	0	---	0.00	29.895 
05:00	52.2	52.2	52.2	86	48.1	0	0	---	0.00	29.897 
05:05	52.0	52.0	52.0	87	48.3	0	0	---	0.00	29.897 
05:10	51.9	51.9	51.9	87	48.2	0	0	---	0.00	29.897 
05:15	51.7	51.7	51.7	87	48.0	0	0	---	0.00	29.902 
05:20	51.6	51.6	51.6	88	48.2	0	0	---	0.00	29.902 
05:25	51.4	51.4	51.4	88	48.0	0	0	---	0.00	29.902 
05:30	51.3	51.3	51.3	88	47.9	0	0	---	0.00	29.904 
05:35	51.3	51.3	51.3	88	47.9	0	0	---	0.00	29.904 
05:40	51.3	51.3	51.3	88	47.9	0	0	---	0.00	29.904 
05:45	51.3	51.3	51.3	88	47.9	0	0	---	0.00	29.907 
05:50	51.1	51.1	51.1	89	48.0	0	0	---	0.00	29.907 
05:55	51.1	51.1	51.1	89	48.0	0	0	---	0.00	29.907 
06:00	51.0	51.0	51.0	89	47.9	0	0	---	0.00	29.912 
06:05	51.0	51.0	51.0	89	47.9	0	0	---	0.00	29.912 
06:10	50.8	50.8	50.8	89	47.7	0	0	---	0.00	29.912 
06:15	50.8	50.8	50.8	89	47.7	0	0	---	0.00	29.920 
06:20	50.8	50.8	50.8	90	48.0	0	0	---	0.00	29.920 
06:25	51.0	51.0	51.0	90	48.2	0	0	---	0.00	29.920 
06:30	51.1	51.1	51.1	90	48.3	0	0	---	0.00	29.924 
06:35	51.3	51.3	51.3	90	48.5	0	0	---	0.00	29.924 
06:40	51.3	51.3	51.3	90	48.5	0	0	---	0.00	29.924 
06:45	51.6	51.6	51.6	90	48.8	0	0	---	0.00	29.927 
06:50	51.7	51.7	51.7	90	48.9	0	0	---	0.00	29.927 
06:55	52.0	52.0	52.0	90	49.2	0	0	---	0.00	29.927 
07:00	52.3	52.3	52.3	90	49.5	0	0	---	0.00	29.932 
07:05	52.6	52.6	52.6	90	49.7	0	0	---	0.00	29.932 
07:10	52.8	52.8	52.8	89	49.6	0	2	112	0.00	29.932 
07:15	53.1	53.1	53.1	89	49.9	0	1	112	0.00	29.935 
07:20	53.3	53.3	53.3	88	49.8	0	5	112	0.00	29.935 
07:25	53.8	53.8	53.8	87	50.0	0	5	112	0.00	29.935 
07:30	54.4	54.4	54.4	85	50.0	0	2	112	0.00	29.935 
07:35	54.8	54.8	54.8	83	49.7	0	3	112	0.00	29.935 
07:40	55.6	55.6	55.6	81	49.9	1	3	112	0.00	29.935 
07:45	55.9	55.9	55.9	80	49.8	0	2	112	0.00	29.934 
07:50	56.3	56.3	56.3	78	49.5	1	2	112	0.00	29.934 
07:55	56.7	56.7	56.7	77	49.6	1	5	112	0.00	29.934 
08:00	56.9	56.9	56.9	77	49.8	0	3	112	0.00	29.935 
08:05	57.0	57.0	57.0	77	49.9	1	4	112	0.00	29.935 
08:10	57.5	57.5	57.5	76	50.0	1	4	90	0.00	29.935 
08:15	57.6	57.6	57.6	75	49.7	1	2	90	0.00	29.949 
08:20	57.8	57.8	57.8	74	49.6	2	7	90	0.00	29.949 
08:25	58.0	58.0	58.0	74	49.8	1	4	135	0.00	29.949 
08:30	57.8	57.8	57.8	75	49.9	1	4	68	0.00	29.952 
08:35	58.3	58.3	58.3	74	50.0	1	4	158	0.00	29.952 
08:40	58.6	58.6	58.6	73	50.0	0	3	202	0.00	29.952 
08:45	58.7	58.7	58.7	74	50.4	1	5	0	0.00	29.950 
08:50	59.3	59.3	59.3	73	50.6	1	4	22	0.00	29.950 
08:55	59.6	59.6	59.6	72	50.6	2	6	112	0.00	29.950 
09:00	59.6	59.6	59.6	73	50.9	1	5	135	0.00	29.956 
09:05	59.5	59.5	59.5	73	50.8	2	7	112	0.00	29.956 
09:10	59.2	59.2	59.2	74	50.9	1	3	112	0.00	29.956 
09:15	58.7	58.7	58.7	74	50.4	2	6	112	0.00	29.967 
09:20	58.3	58.3	58.3	75	50.4	2	5	68	0.00	29.967 
09:25	58.1	58.1	58.1	76	50.6	1	5	112	0.00	29.967 
09:30	58.3	58.3	58.3	75	50.4	1	5	112	0.00	29.973 
09:35	58.4	58.4	58.4	75	50.5	0	2	112	0.00	29.973 
09:40	58.9	58.9	58.9	75	51.0	2	5	90	0.00	29.973 
09:45	59.8	59.8	59.8	73	51.1	2	5	90	0.00	29.969 
09:50	60.4	60.4	60.4	71	50.9	2	5	90	0.00	29.969 
09:55	61.0	61.0	61.0	70	51.1	2	4	90	0.00	29.969 
10:00	61.5	61.5	61.5	68	50.8	2	6	90	0.00	29.966 
10:05	61.2	61.2	61.2	69	50.9	2	9	68	0.00	29.966 
10:10	60.5	60.5	60.5	70	50.7	3	8	112	0.00	29.966 
10:15	60.4	60.4	60.4	71	50.9	2	5	90	0.00	29.968 
10:20	60.4	60.4	60.4	71	50.9	0	3	90	0.00	29.968 
10:25	60.5	60.5	60.5	72	51.4	1	4	90	0.00	29.968 
10:30	60.5	60.5	60.5	71	51.0	1	7	90	0.00	29.970 
10:35	60.7	60.7	60.7	69	50.5	2	7	68	0.00	29.970 
10:40	60.9	60.9	60.9	70	51.0	2	11	90	0.00	29.970 
10:45	60.9	60.9	60.9	69	50.7	1	4	90	0.00	29.973 
10:50	60.7	60.7	60.7	71	51.2	2	6	90	0.00	29.973 
10:55	60.9	60.9	60.9	69	50.7	2	5	68	0.00	29.973 
11:00	60.9	60.9	60.9	69	50.7	2	5	68	0.00	29.974 
11:05	61.0	61.0	61.0	69	50.8	2	7	90	0.00	29.974 
11:10	61.2	61.2	61.2	67	50.2	2	10	90	0.00	29.974 
11:15	61.2	61.2	61.2	68	50.5	2	7	90	0.00	29.978 
11:20	61.5	61.5	61.5	68	50.8	2	5	112	0.00	29.978 
11:25	61.6	61.6	61.6	67	50.5	4	9	90	0.00	29.978 
11:30	62.1	62.1	62.1	67	51.0	3	9	90	0.00	29.982 
11:35	62.6	62.6	62.6	65	50.7	2	4	90	0.00	29.982 
11:40	62.7	62.7	62.7	66	51.2	3	7	68	0.00	29.982 
11:45	62.6	62.6	62.6	66	51.1	2	6	90	0.00	29.984 
11:50	62.4	62.4	62.4	65	50.5	2	6	90	0.00	29.984 
11:55	62.3	62.3	62.3	66	50.8	1	4	90	0.00	29.984 
12:00	62.3	62.3	62.3	65	50.4	1	4	90	0.00	29.983 
12:05	62.0	62.0	62.0	65	50.1	2	7	90	0.00	29.983 
12:10	61.6	61.6	61.6	67	50.5	1	5	112	0.00	29.983 
12:15	61.8	61.8	61.8	66	50.3	1	5	112	0.00	29.985 
12:20	61.8	61.8	61.8	66	50.3	0	3	112	0.00	29.985 
12:25	61.6	61.6	61.6	65	49.7	1	4	112	0.00	29.985 
12:30	61.6	61.6	61.6	66	50.1	1	4	112	0.00	29.986 
12:35	61.8	61.8	61.8	65	49.9	1	3	112	0.00	29.986 
12:40	62.1	62.1	62.1	63	49.3	1	4	112	0.00	29.986 
12:45	62.4	62.4	62.4	63	49.6	1	3	135	0.00	29.984 
12:50	62.6	62.6	62.6	62	49.4	0	2	135	0.00	29.984 
12:55	62.9	62.9	62.9	61	49.2	2	5	112	0.00	29.984 
13:00	63.2	63.2	63.2	60	49.1	2	5	90	0.00	29.978 
13:05	63.7	63.7	63.7	58	48.6	1	4	112	0.00	29.978 
13:10	64.2	64.2	64.2	59	49.6	1	4	112	0.00	29.978 
13:15	64.5	64.5	64.5	57	48.9	2	4	112	0.00	29.971 
13:20	64.3	64.3	64.3	56	48.3	2	6	112	0.00	29.971 
13:25	64.2	64.2	64.2	57	48.6	1	4	90	0.00	29.971 
13:30	64.3	64.3	64.3	57	48.7	1	5	90	0.00	29.969 
13:35	64.7	64.7	64.7	56	48.6	1	4	112	0.00	29.969 
13:40	64.7	64.7	64.7	54	47.7	2	7	112	0.00	29.969 
13:45	64.5	64.5	64.5	52	46.5	2	7	68	0.00	29.964 
13:50	64.7	64.7	64.7	54	47.7	1	4	112	0.00	29.964 
13:55	64.5	64.5	64.5	53	47.0	2	6	135	0.00	29.964 
14:00	64.5	64.5	64.5	51	46.0	1	5	68	0.00	29.971 
14:05	64.5	64.5	64.5	52	46.5	2	7	112	0.00	29.971 
14:10	64.8	64.8	64.8	51	46.2	1	5	90	0.00	29.971 
14:15	65.5	65.5	65.5	51	46.9	1	3	0	0.00	29.969 
14:20	66.4	66.4	66.4	47	45.5	3	7	90	0.00	29.969 
14:25	66.4	66.4	66.4	47	45.5	2	4	90	0.00	29.969 
14:30	66.1	66.1	66.1	49	46.4	1	7	112	0.00	29.971 
14:35	65.6	65.6	65.6	49	45.9	1	4	90	0.00	29.971 
14:40	65.6	65.6	65.6	47	44.8	0	3	135	0.00	29.971 
14:45	66.1	66.1	66.1	46	44.7	2	6	90	0.00	29.967 
14:50	66.4	66.4	66.4	46	45.0	1	4	90	0.00	29.967 
14:55	66.4	66.4	66.4	45	44.4	1	4	90	0.00	29.967 
15:00	66.3	66.3	66.3	47	45.5	2	6	90	0.00	29.967 
15:05	66.3	66.3	66.3	47	45.5	2	4	68	0.00	29.967 
15:10	66.3	66.3	66.3	45	44.3	2	5	90	0.00	29.967 
15:15	66.3	66.3	66.3	46	44.9	2	6	90	0.00	29.968 
15:20	66.4	66.4	66.4	42	42.6	2	7	90	0.00	29.968 
15:25	66.8	66.8	66.8	43	43.6	2	5	90	0.00	29.968 
15:30	66.8	66.8	66.8	44	44.2	3	8	90	0.00	29.963 
15:35	66.8	66.8	66.8	43	43.6	2	6	90	0.00	29.963 
15:40	66.9	66.9	66.9	43	43.7	3	6	90	0.00	29.963 
15:45	66.8	66.8	66.8	44	44.2	4	14	90	0.00	29.961 
15:50	66.8	66.8	66.8	44	44.2	2	10	90	0.00	29.961 
15:55	66.9	66.9	66.9	43	43.7	1	3	90	0.00	29.961 
16:00	67.4	67.4	67.4	43	44.1	2	6	90	0.00	29.960 
16:05	67.4	67.4	67.4	44	44.7	2	7	45	0.00	29.960 
16:10	67.4	67.4	67.4	45	45.3	2	6	112	0.00	29.960 
16:15	67.1	67.1	67.1	43	43.8	4	12	90	0.00	29.961 
16:20	67.6	67.6	67.6	45	45.5	3	6	90	0.00	29.961 
16:25	68.3	68.3	68.3	43	44.9	4	7	90	0.00	29.961 
16:30	68.4	68.4	68.4	44	45.6	3	11	90	0.00	29.957 
16:35	68.4	68.4	68.4	43	45.0	3	10	90	0.00	29.957 
16:40	68.8	68.8	68.8	43	45.4	3	8	112	0.00	29.957 
16:45	68.6	68.6	68.6	42	44.6	3	8	90	0.00	29.958 
16:50	68.6	68.6	68.6	41	44.0	2	10	90	0.00	29.958 
16:55	68.9	68.9	68.9	39	42.9	4	13	90	0.00	29.958 
17:00	68.9	68.9	68.9	40	43.6	2	7	112	0.00	29.958 
17:05	68.9	68.9	68.9	41	44.2	3	6	112	0.00	29.958 
17:10	68.6	68.6	68.6	41	44.0	3	12	90	0.00	29.958 
17:15	68.3	68.3	68.3	40	43.0	3	6	90	0.00	29.963 
17:20	68.1	68.1	68.1	40	42.9	2	5	90	0.00	29.963 
17:25	68.1	68.1	68.1	42	44.1	2	7	90	0.00	29.963 
17:30	68.1	68.1	68.1	42	44.1	1	5	112	0.00	29.963 
17:35	67.8	67.8	67.8	43	44.5	3	9	90	0.00	29.963 
17:40	67.4	67.4	67.4	43	44.1	2	9	90	0.00	29.963 
17:45	67.3	67.3	67.3	42	43.4	3	11	90	0.00	29.962 
17:50	67.4	67.4	67.4	42	43.5	3	9	90	0.00	29.962 
17:55	67.6	67.6	67.6	42	43.7	2	6	135	0.00	29.962 
18:00	67.8	67.8	67.8	41	43.2	3	10	90	0.00	29.961 
18:05	67.8	67.8	67.8	41	43.2	2	6	90	0.00	29.961 
18:10	67.4	67.4	67.4	42	43.5	2	6	112	0.00	29.961 
18:15	67.3	67.3	67.3	42	43.4	4	10	90	0.00	29.958 
18:20	67.1	67.1	67.1	41	42.6	4	12	90	0.00	29.958 
18:25	67.3	67.3	67.3	41	42.8	4	11	90	0.00	29.958 
18:30	67.6	67.6	67.6	42	43.7	2	7	90	0.00	29.957 
18:35	67.6	67.6	67.6	42	43.7	4	11	90	0.00	29.957 
18:40	67.4	67.4	67.4	42	43.5	3	9	90	0.00	29.957 
18:45	67.1	67.1	67.1	44	44.5	3	10	90	0.00	29.957 
18:50	67.3	67.3	67.3	45	45.2	4	11	90	0.00	29.957 
18:55	67.3	67.3	67.3	43	44.0	4	11	90	0.00	29.957 
19:00	67.1	67.1	67.1	44	44.5	3	8	90	0.00	29.959 
19:05	66.6	66.6	66.6	44	44.0	4	9	90	0.00	29.959 
19:10	66.3	66.3	66.3	45	44.3	2	4	68	0.00	29.959 
19:15	66.1	66.1	66.1	46	44.7	2	6	90	0.00	29.956 
19:20	66.1	66.1	66.1	47	45.3	3	7	90	0.00	29.956 
19:25	66.3	66.3	66.3	47	45.5	2	6	90	0.00	29.956 
19:30	66.3	66.3	66.3	47	45.5	3	6	90	0.00	29.957 
19:35	66.0	66.0	66.0	47	45.2	2	5	90	0.00	29.957 
19:40	65.8	65.8	65.8	48	45.6	1	3	68	0.00	29.957 
19:45	65.6	65.6	65.6	48	45.4	2	3	68	0.00	29.959 
19:50	65.5	65.5	65.5	49	45.8	2	7	68	0.00	29.959 
19:55	65.5	65.5	65.5	48	45.3	2	5	68	0.00	29.959 
20:00	65.3	65.3	65.3	48	45.1	2	5	68	0.00	29.958 
20:05	65.3	65.3	65.3	47	44.5	3	9	90	0.00	29.958 
20:10	65.2	65.2	65.2	46	43.9	3	9	90	0.00	29.958 
20:15	65.0	65.0	65.0	46	43.7	2	6	90	0.00	29.958 
20:20	64.8	64.8	64.8	47	44.1	1	4	90	0.00	29.958 
20:25	64.7	64.7	64.7	46	43.4	2	6	90	0.00	29.958 
20:30	64.7	64.7	64.7	46	43.4	2	6	90	0.00	29.963 
20:35	64.7	64.7	64.7	47	44.0	2	4	90	0.00	29.963 
20:40	64.5	64.5	64.5	47	43.8	1	3	90	0.00	29.963 
20:45	64.3	64.3	64.3	48	44.2	1	4	90	0.00	29.966 
20:50	64.2	64.2	64.2	49	44.6	1	4	90	0.00	29.966 
20:55	64.0	64.0	64.0	49	44.5	1	4	90	0.00	29.966 
21:00	63.7	63.7	63.7	50	44.7	1	2	90	0.00	29.966 
21:05	63.4	63.4	63.4	51	45.0	1	5	68	0.00	29.966 
21:10	63.1	63.1	63.1	52	45.2	1	3	68	0.00	29.966 
21:15	62.7	62.7	62.7	52	44.8	2	4	68	0.00	29.966 
21:20	62.6	62.6	62.6	53	45.2	1	3	68	0.00	29.966 
21:25	62.3	62.3	62.3	53	44.9	1	2	68	0.00	29.966 
21:30	62.0	62.0	62.0	54	45.2	1	3	68	0.00	29.969 
21:35	61.8	61.8	61.8	54	45.0	1	3	68	0.00	29.969 
21:40	61.5	61.5	61.5	55	45.2	0	1	68	0.00	29.969 
21:45	61.2	61.2	61.2	55	44.9	0	1	68	0.00	29.973 
21:50	60.9	60.9	60.9	56	45.1	0	1	68	0.00	29.973 
21:55	60.5	60.5	60.5	56	44.7	0	0	---	0.00	29.973 
22:00	60.1	60.1	60.1	57	44.8	0	0	---	0.00	29.974 
22:05	59.6	59.6	59.6	58	44.8	0	0	---	0.00	29.974 
22:10	59.2	59.2	59.2	58	44.4	0	0	---	0.00	29.974 
22:15	58.7	58.7	58.7	59	44.4	0	0	---	0.00	29.983 
22:20	58.4	58.4	58.4	60	44.6	0	0	---	0.00	29.983 
22:25	58.0	58.0	58.0	61	44.6	0	0	---	0.00	29.983 
22:30	57.5	57.5	57.5	63	45.0	0	0	---	0.00	29.988 
22:35	57.0	57.0	57.0	64	44.9	0	0	---	0.00	29.988 
22:40	56.7	56.7	56.7	65	45.1	0	0	---	0.00	29.988 
22:45	56.5	56.5	56.5	65	44.9	0	0	---	0.00	29.993 
22:50	56.0	56.0	56.0	67	45.2	0	0	---	0.00	29.993 
22:55	55.7	55.7	55.7	68	45.3	0	0	---	0.00	29.993 
23:00	55.4	55.4	55.4	69	45.4	0	0	---	0.00	29.994 
23:05	55.1	55.1	55.1	70	45.5	0	0	---	0.00	29.994 
23:10	54.8	54.8	54.8	71	45.6	0	0	---	0.00	29.994 
23:15	54.7	54.7	54.7	72	45.9	0	0	---	0.00	29.996 
23:20	54.5	54.5	54.5	72	45.7	0	0	---	0.00	29.996 
23:25	54.4	54.4	54.4	73	45.9	0	0	---	0.00	29.996 
23:30	54.2	54.2	54.2	74	46.1	0	0	---	0.00	29.995 
23:35	53.9	53.9	53.9	75	46.2	0	0	---	0.00	29.995 
23:40	53.8	53.8	53.8	75	46.1	0	0	---	0.00	29.995 
23:45	53.5	53.5	53.5	76	46.1	0	0	---	0.00	29.995 
23:50	53.3	53.3	53.3	77	46.3	0	0	---	0.00	29.995 
23:55	53.2	53.2	53.2	78	46.5	0	0	---	0.00	29.995 

CoCoRaHS
IN-AL-39
A2 Web Hosting
Creative Commons License
GoDaddy
search engine by freefind advanced

loaded 2018-11-14 00:35:21 • last modified 2010-11-18 10:43:29
Privacy PolicyDisclaimer
• wx.awcolley.com is powered by PmWiki v.2002016 •
• all content (unless otherwise noted) © 2018 A W Colley